createdAt,value
2022-10-09T00:01:05.708Z,6.00
2022-10-09T00:03:39.825Z,7.10
2022-10-09T00:06:08.991Z,7.10
2022-10-09T00:08:36.832Z,11.30
2022-10-09T00:11:05.258Z,8.30
2022-10-09T00:13:32.820Z,9.70
2022-10-09T00:16:02.844Z,5.80
2022-10-09T00:18:30.383Z,7.90
2022-10-09T00:20:58.170Z,7.90
2022-10-09T00:23:25.841Z,7.10
2022-10-09T00:25:54.327Z,7.30
2022-10-09T00:28:23.053Z,10.80
2022-10-09T00:30:50.799Z,5.30
2022-10-09T00:33:18.883Z,6.40
2022-10-09T00:35:46.622Z,7.70
2022-10-09T00:38:14.445Z,9.10
2022-10-09T00:40:42.034Z,4.70
2022-10-09T00:43:17.981Z,4.50
2022-10-09T00:45:49.979Z,4.30
2022-10-09T00:48:18.658Z,7.60
2022-10-09T00:50:49.979Z,5.00
2022-10-09T00:53:19.907Z,7.00
2022-10-09T00:55:47.656Z,5.80
2022-10-09T00:58:15.693Z,5.30
2022-10-09T01:00:43.217Z,8.30
2022-10-09T01:03:10.860Z,5.00
2022-10-09T01:05:38.612Z,6.00
2022-10-09T01:08:10.570Z,9.20
2022-10-09T01:10:42.077Z,4.30
2022-10-09T01:13:09.577Z,5.20
2022-10-09T01:15:37.157Z,6.30
2022-10-09T01:18:09.088Z,7.00
2022-10-09T01:20:54.788Z,5.30
2022-10-09T01:23:32.615Z,6.10
2022-10-09T01:26:09.290Z,8.40
2022-10-09T01:28:39.119Z,6.90
2022-10-09T01:31:08.248Z,7.30
2022-10-09T01:33:36.459Z,7.80
2022-10-09T01:36:04.620Z,6.80
2022-10-09T01:38:33.111Z,7.20
2022-10-09T01:41:02.324Z,6.50
2022-10-09T01:43:29.869Z,10.10
2022-10-09T01:46:17.936Z,8.80
2022-10-09T01:48:47.932Z,5.00
2022-10-09T01:51:16.269Z,8.80
2022-10-09T01:53:44.394Z,7.30
2022-10-09T01:56:14.597Z,4.30
2022-10-09T01:58:46.324Z,5.50
2022-10-09T02:01:16.741Z,6.80
2022-10-09T02:03:46.550Z,4.00
2022-10-09T02:06:15.624Z,10.30
2022-10-09T02:08:45.105Z,6.10
2022-10-09T02:11:14.904Z,7.70
2022-10-09T02:13:43.335Z,6.20
2022-10-09T02:16:18.968Z,4.70
2022-10-09T02:18:50.738Z,4.70
2022-10-09T02:21:21.253Z,5.60
2022-10-09T02:23:49.206Z,8.10
2022-10-09T02:26:17.234Z,5.80
2022-10-09T02:28:46.093Z,11.30
2022-10-09T02:31:25.186Z,3.40
2022-10-09T02:33:56.813Z,3.30
2022-10-09T02:36:25.121Z,5.70
2022-10-09T02:38:54.226Z,6.00
2022-10-09T02:41:22.223Z,6.60
2022-10-09T02:43:50.019Z,6.00
2022-10-09T02:46:17.748Z,6.50
2022-10-09T02:48:45.380Z,5.50
2022-10-09T02:51:13.393Z,7.70
2022-10-09T02:53:40.919Z,15.90
2022-10-09T02:56:08.497Z,7.80
2022-10-09T02:58:36.863Z,5.30
2022-10-09T03:01:05.102Z,8.00
2022-10-09T03:03:33.131Z,6.80
2022-10-09T03:06:05.271Z,8.50
2022-10-09T03:08:33.611Z,8.20
2022-10-09T03:11:01.151Z,8.00
2022-10-09T03:13:28.993Z,9.10
2022-10-09T03:16:02.090Z,9.30
2022-10-09T03:18:29.726Z,6.10
2022-10-09T03:20:57.742Z,6.30
2022-10-09T03:23:25.389Z,9.00
2022-10-09T03:25:57.138Z,6.40
2022-10-09T03:28:25.145Z,8.20
2022-10-09T03:30:53.218Z,9.10
2022-10-09T03:33:21.348Z,6.90
2022-10-09T03:35:49.968Z,7.00
2022-10-09T03:38:17.545Z,6.20
2022-10-09T03:40:45.208Z,7.80
2022-10-09T03:43:13.171Z,6.10
2022-10-09T03:45:41.373Z,10.40
2022-10-09T03:48:10.221Z,8.70
2022-10-09T03:50:41.229Z,7.70
2022-10-09T03:53:09.638Z,6.00
2022-10-09T03:55:37.481Z,5.20
2022-10-09T03:58:05.049Z,10.30
2022-10-09T04:00:32.798Z,7.10
2022-10-09T04:03:00.458Z,6.60
2022-10-09T04:05:28.096Z,14.40
2022-10-09T04:07:55.818Z,10.00
2022-10-09T04:10:23.646Z,7.00
2022-10-09T04:12:51.615Z,6.40
2022-10-09T04:15:19.562Z,8.20
2022-10-09T04:17:47.061Z,8.70
2022-10-09T04:20:14.606Z,6.20
2022-10-09T04:22:42.206Z,10.90
2022-10-09T04:25:09.784Z,10.90
2022-10-09T04:27:37.531Z,7.30
2022-10-09T04:30:05.503Z,4.70
2022-10-09T04:32:33.165Z,5.90
2022-10-09T04:35:00.719Z,10.60
2022-10-09T04:37:28.406Z,11.20
2022-10-09T04:39:57.033Z,9.70
2022-10-09T04:42:24.595Z,6.70
2022-10-09T04:44:52.269Z,6.30
2022-10-09T04:47:19.848Z,8.60
2022-10-09T04:49:47.523Z,10.00
2022-10-09T04:52:15.060Z,6.30
2022-10-09T04:54:42.642Z,10.00
2022-10-09T04:57:10.258Z,10.30
2022-10-09T04:59:37.857Z,8.80
2022-10-09T05:02:05.512Z,15.90
2022-10-09T05:04:33.254Z,13.30
2022-10-09T05:07:00.800Z,12.60
2022-10-09T05:09:28.405Z,9.40
2022-10-09T05:11:55.917Z,9.20
2022-10-09T05:14:23.487Z,10.50
2022-10-09T05:17:13.130Z,12.10
2022-10-09T05:19:41.442Z,13.60
2022-10-09T05:22:08.992Z,8.70
2022-10-09T05:24:36.618Z,10.10
2022-10-09T05:27:05.113Z,9.50
2022-10-09T05:29:33.014Z,7.50
2022-10-09T05:32:00.660Z,6.70
2022-10-09T05:34:28.397Z,6.70
2022-10-09T05:36:55.955Z,6.30
2022-10-09T05:39:23.557Z,5.60
2022-10-09T05:41:56.997Z,6.40
2022-10-09T05:44:29.393Z,7.50
2022-10-09T05:46:57.215Z,7.40
2022-10-09T05:49:28.140Z,6.60
2022-10-09T05:51:56.131Z,5.70
2022-10-09T05:54:23.856Z,10.10
2022-10-09T05:56:51.777Z,9.90
2022-10-09T05:59:22.784Z,7.80
2022-10-09T06:01:54.529Z,10.70
2022-10-09T06:04:23.300Z,9.20
2022-10-09T06:06:51.649Z,6.40
2022-10-09T06:09:22.266Z,6.20
2022-10-09T06:11:50.991Z,7.20
2022-10-09T06:14:21.455Z,5.40
2022-10-09T06:16:49.254Z,11.90
2022-10-09T06:19:20.015Z,10.50
2022-10-09T06:21:47.923Z,10.40
2022-10-09T06:24:28.828Z,11.10
2022-10-09T06:27:03.239Z,15.80
2022-10-09T06:29:31.099Z,6.40
2022-10-09T06:31:58.983Z,6.50
2022-10-09T06:34:27.034Z,9.50
2022-10-09T06:37:03.898Z,11.80
2022-10-09T06:39:53.109Z,9.50
2022-10-09T06:42:20.957Z,11.20
2022-10-09T06:44:55.983Z,9.30
2022-10-09T06:47:27.722Z,11.40
2022-10-09T06:49:59.273Z,8.90
2022-10-09T06:52:31.461Z,8.60
2022-10-09T06:54:59.173Z,8.70
2022-10-09T06:57:26.748Z,9.10
2022-10-09T06:59:54.333Z,9.90
2022-10-09T07:02:21.918Z,8.00
2022-10-09T07:04:49.558Z,9.90
2022-10-09T07:07:17.104Z,9.30
2022-10-09T07:09:46.780Z,8.70
2022-10-09T07:12:14.489Z,8.80
2022-10-09T07:15:00.907Z,9.30
2022-10-09T07:17:47.694Z,8.00
2022-10-09T07:20:24.308Z,9.90
2022-10-09T07:23:21.506Z,5.00
2022-10-09T07:25:52.063Z,6.80
2022-10-09T07:28:19.772Z,5.60
2022-10-09T07:30:51.175Z,9.60
2022-10-09T07:33:19.028Z,5.90
2022-10-09T07:35:53.712Z,4.00
2022-10-09T07:38:22.497Z,6.30
2022-10-09T07:40:53.166Z,4.80
2022-10-09T07:43:21.385Z,6.60
2022-10-09T07:45:49.217Z,5.10
2022-10-09T07:48:16.907Z,7.00
2022-10-09T07:50:50.125Z,8.80
2022-10-09T07:53:17.851Z,4.10
2022-10-09T07:55:46.807Z,5.00
2022-10-09T07:58:15.136Z,3.50
2022-10-09T08:00:43.372Z,11.80
2022-10-09T08:03:11.086Z,6.40
2022-10-09T08:05:49.798Z,14.10
2022-10-09T08:08:21.519Z,6.30
2022-10-09T08:10:49.135Z,6.30
2022-10-09T08:13:19.839Z,6.50
2022-10-09T08:15:47.652Z,4.80
2022-10-09T08:21:38.936Z,6.60
2022-10-09T08:24:16.104Z,8.60
2022-10-09T08:26:44.571Z,4.00
2022-10-09T08:29:14.217Z,5.30
2022-10-09T08:31:41.983Z,6.60
2022-10-09T08:34:10.587Z,5.90
2022-10-09T08:36:38.221Z,31.80
2022-10-09T08:39:05.992Z,25.80
2022-10-09T08:44:29.448Z,13.50
2022-10-09T08:47:15.850Z,5.90
2022-10-09T08:50:09.089Z,8.00
2022-10-09T08:52:50.138Z,4.90
2022-10-09T08:55:25.835Z,6.50
2022-10-09T08:58:01.115Z,5.40
2022-10-09T09:00:31.094Z,41.70
2022-10-09T09:02:58.787Z,9.50
2022-10-09T09:05:41.964Z,6.50
2022-10-09T09:08:40.165Z,5.90
2022-10-09T09:11:29.081Z,8.70
2022-10-09T09:13:56.693Z,6.30
2022-10-09T09:16:39.287Z,6.00
2022-10-09T09:19:12.809Z,4.50
2022-10-09T09:21:53.340Z,3.20
2022-10-09T09:24:23.720Z,4.90
2022-10-09T09:26:53.262Z,4.70
2022-10-09T09:29:23.322Z,6.70
2022-10-09T09:31:54.627Z,7.30
2022-10-09T09:34:29.276Z,5.90
2022-10-09T09:36:58.238Z,6.90
2022-10-09T09:42:20.414Z,5.90
2022-10-09T09:44:57.195Z,4.20
2022-10-09T09:47:36.137Z,3.80
2022-10-09T09:50:06.030Z,10.00
2022-10-09T09:52:39.833Z,5.30
2022-10-09T09:55:07.554Z,6.10
2022-10-09T09:57:41.978Z,4.80
2022-10-09T10:00:17.813Z,4.40
2022-10-09T10:02:46.479Z,4.40
2022-10-09T10:05:18.823Z,3.70
2022-10-09T10:07:50.253Z,3.80
2022-10-09T10:10:25.398Z,5.00
2022-10-09T10:12:56.542Z,6.40
2022-10-09T10:15:34.116Z,7.40
2022-10-09T10:18:01.732Z,5.10
2022-10-09T10:20:30.462Z,5.50
2022-10-09T10:22:58.652Z,4.30
2022-10-09T10:25:29.951Z,3.80
2022-10-09T10:28:00.930Z,6.20
2022-10-09T10:30:28.676Z,4.50
2022-10-09T10:32:56.251Z,3.10
2022-10-09T10:35:25.053Z,2.70
2022-10-09T10:37:58.287Z,5.50
2022-10-09T10:40:32.420Z,8.60
2022-10-09T10:43:23.365Z,4.80
2022-10-09T10:46:03.577Z,3.40
2022-10-09T10:48:32.497Z,3.90
2022-10-09T10:51:15.271Z,4.80
2022-10-09T10:53:58.093Z,2.60
2022-10-09T10:56:35.955Z,2.50
2022-10-09T10:59:18.711Z,4.40
2022-10-09T11:02:01.562Z,3.70
2022-10-09T11:04:38.147Z,3.30
2022-10-09T11:07:14.865Z,3.80
2022-10-09T11:10:02.632Z,6.70
2022-10-09T11:12:48.151Z,7.70
2022-10-09T11:15:17.106Z,46.40
2022-10-09T11:17:59.283Z,36.40
2022-10-09T11:20:44.523Z,6.90
2022-10-09T11:23:30.881Z,7.40
2022-10-09T11:25:58.417Z,5.50
2022-10-09T11:28:30.819Z,6.60
2022-10-09T11:31:03.013Z,5.20
2022-10-09T11:33:36.998Z,3.10
2022-10-09T11:36:13.045Z,4.60
2022-10-09T11:38:45.017Z,2.80
2022-10-09T11:41:13.016Z,4.30
2022-10-09T11:43:40.585Z,3.30
2022-10-09T11:46:18.175Z,9.50
2022-10-09T11:48:53.894Z,6.00
2022-10-09T11:51:40.219Z,5.10
2022-10-09T11:54:12.716Z,6.30
2022-10-09T11:56:51.723Z,4.90
2022-10-09T11:59:31.277Z,4.20
2022-10-09T12:01:59.979Z,5.50
2022-10-09T12:07:27.148Z,8.80
2022-10-09T12:10:00.397Z,5.50
2022-10-09T12:12:28.424Z,6.30
2022-10-09T12:14:56.468Z,6.40
2022-10-09T12:17:24.146Z,4.70
2022-10-09T12:20:00.879Z,4.40
2022-10-09T12:22:35.043Z,5.20
2022-10-09T12:25:15.120Z,6.30
2022-10-09T12:27:43.004Z,10.80
2022-10-09T12:30:14.324Z,6.50
2022-10-09T12:32:45.770Z,7.90
2022-10-09T12:35:29.027Z,7.20
2022-10-09T12:37:56.676Z,5.50
2022-10-09T12:40:26.352Z,6.80
2022-10-09T12:42:55.400Z,5.90
2022-10-09T12:45:25.090Z,7.80
2022-10-09T12:47:53.601Z,5.70
2022-10-09T12:50:30.896Z,6.10
2022-10-09T12:53:00.164Z,4.40
2022-10-09T12:55:29.310Z,8.20
2022-10-09T12:57:58.708Z,6.00
2022-10-09T13:00:26.274Z,11.40
2022-10-09T13:02:54.929Z,5.90
2022-10-09T13:05:23.022Z,7.40
2022-10-09T13:07:52.405Z,7.20
2022-10-09T13:10:21.353Z,8.20
2022-10-09T13:12:54.032Z,5.80
2022-10-09T13:15:27.762Z,5.30
2022-10-09T13:17:55.281Z,4.10
2022-10-09T13:20:28.728Z,4.40
2022-10-09T13:22:58.226Z,8.20
2022-10-09T13:25:27.347Z,5.10
2022-10-09T13:27:55.354Z,4.30
2022-10-09T13:30:22.957Z,7.10
2022-10-09T13:32:50.580Z,6.20
2022-10-09T13:35:18.143Z,4.50
2022-10-09T13:37:45.783Z,6.00
2022-10-09T13:40:15.790Z,5.10
2022-10-09T13:42:46.645Z,6.90
2022-10-09T13:45:14.250Z,6.40
2022-10-09T13:47:41.776Z,10.80
2022-10-09T13:50:09.916Z,7.10
2022-10-09T13:55:05.510Z,5.90
2022-10-09T13:57:33.056Z,6.90
2022-10-09T14:00:00.636Z,5.80
2022-10-09T14:02:28.194Z,8.80
2022-10-09T14:04:55.720Z,6.40
2022-10-09T14:07:23.366Z,5.40
2022-10-09T14:09:51.145Z,5.80
2022-10-09T14:12:18.658Z,3.50
2022-10-09T14:14:46.348Z,7.60
2022-10-09T14:17:13.930Z,4.40
2022-10-09T14:19:41.580Z,9.70
2022-10-09T14:22:09.182Z,4.50
2022-10-09T14:24:36.885Z,5.40
2022-10-09T14:27:04.465Z,9.40
2022-10-09T14:29:32.084Z,5.90
2022-10-09T14:31:59.688Z,7.20
2022-10-09T14:34:27.269Z,4.60
2022-10-09T14:36:55.103Z,3.90
2022-10-09T14:39:22.742Z,4.20
2022-10-09T14:41:50.337Z,4.80
2022-10-09T14:44:17.897Z,6.50
2022-10-09T14:46:45.468Z,5.00
2022-10-09T14:49:13.081Z,6.70
2022-10-09T14:51:41.711Z,9.50
2022-10-09T14:54:10.699Z,7.50
2022-10-09T14:56:38.359Z,6.10
2022-10-09T14:59:06.156Z,7.50
2022-10-09T15:01:34.356Z,5.00
2022-10-09T15:04:02.536Z,7.60
2022-10-09T15:06:30.552Z,5.90
2022-10-09T15:09:05.372Z,4.90
2022-10-09T15:11:34.249Z,6.20
2022-10-09T15:14:02.314Z,6.80
2022-10-09T15:16:29.864Z,7.80
2022-10-09T15:18:57.491Z,4.00
2022-10-09T15:21:26.863Z,7.90
2022-10-09T15:23:55.828Z,5.60
2022-10-09T15:26:24.059Z,5.50
2022-10-09T15:28:51.653Z,5.30
2022-10-09T15:31:30.158Z,6.10
2022-10-09T15:33:58.808Z,6.00
2022-10-09T15:36:26.852Z,5.00
2022-10-09T15:38:54.717Z,7.80
2022-10-09T15:41:30.250Z,10.00
2022-10-09T15:43:59.025Z,10.20
2022-10-09T15:46:26.933Z,7.30
2022-10-09T15:48:54.565Z,6.70
2022-10-09T15:51:22.898Z,7.20
2022-10-09T15:53:51.108Z,8.70
2022-10-09T15:56:20.417Z,9.70
2022-10-09T15:58:48.034Z,9.90
2022-10-09T16:01:16.331Z,7.00
2022-10-09T16:03:44.118Z,5.40
2022-10-09T16:06:13.110Z,8.00
2022-10-09T16:08:41.238Z,8.10
2022-10-09T16:11:10.129Z,9.30
2022-10-09T16:13:39.505Z,7.50
2022-10-09T16:16:08.117Z,12.50
2022-10-09T16:18:35.728Z,7.60
2022-10-09T16:21:07.132Z,11.40
2022-10-09T16:23:35.086Z,6.70
2022-10-09T16:26:03.977Z,9.90
2022-10-09T16:28:32.010Z,5.60
2022-10-09T16:30:59.699Z,6.30
2022-10-09T16:33:27.486Z,14.00
2022-10-09T16:35:55.151Z,6.30
2022-10-09T16:38:22.725Z,7.50
2022-10-09T16:41:01.688Z,12.30
2022-10-09T16:43:32.882Z,10.10
2022-10-09T16:46:10.634Z,8.70
2022-10-09T16:48:38.224Z,5.90
2022-10-09T16:51:09.533Z,11.80
2022-10-09T16:53:37.299Z,6.90
2022-10-09T16:56:12.409Z,10.60
2022-10-09T16:58:41.018Z,7.90
2022-10-09T17:01:10.316Z,9.90
2022-10-09T17:03:40.640Z,15.70
2022-10-09T17:06:09.341Z,11.80
2022-10-09T17:08:37.102Z,25.60
2022-10-09T17:11:09.063Z,82.70
2022-10-09T17:13:36.810Z,31.90
2022-10-09T17:16:08.441Z,19.30
2022-10-09T17:18:36.475Z,20.00
2022-10-09T17:21:05.074Z,27.90
2022-10-09T17:23:32.872Z,33.00
2022-10-09T17:26:04.968Z,38.30
2022-10-09T17:28:34.464Z,33.80
2022-10-09T17:31:03.527Z,25.60
2022-10-09T17:33:31.787Z,24.80
2022-10-09T17:35:59.407Z,18.20
2022-10-09T17:38:26.976Z,22.30
2022-10-09T17:40:54.830Z,23.10
2022-10-09T17:43:22.400Z,42.50
2022-10-09T17:45:50.064Z,28.60
2022-10-09T17:48:17.651Z,24.20
2022-10-09T17:50:55.113Z,17.90
2022-10-09T17:53:22.843Z,29.80
2022-10-09T17:55:51.904Z,24.70
2022-10-09T17:58:20.391Z,31.10
2022-10-09T18:00:48.369Z,29.30
2022-10-09T18:03:17.392Z,35.70
2022-10-09T18:05:46.419Z,31.90
2022-10-09T18:08:14.963Z,30.10
2022-10-09T18:10:42.803Z,30.10
2022-10-09T18:13:11.168Z,36.10
2022-10-09T18:15:39.972Z,38.90
2022-10-09T18:18:07.884Z,55.90
2022-10-09T18:20:35.985Z,33.90
2022-10-09T18:23:04.467Z,47.40
2022-10-09T18:25:32.351Z,41.50
2022-10-09T18:27:59.987Z,37.50
2022-10-09T18:30:27.814Z,28.00
2022-10-09T18:32:55.816Z,24.30
2022-10-09T18:35:23.374Z,22.20
2022-10-09T18:40:59.766Z,30.00
2022-10-09T18:46:39.595Z,44.50
2022-10-09T18:49:18.456Z,58.00
2022-10-09T18:51:50.317Z,41.90
2022-10-09T18:54:19.592Z,56.00
2022-10-09T18:56:47.388Z,67.10
2022-10-09T18:59:16.517Z,55.30
2022-10-09T19:01:44.729Z,44.10
2022-10-09T19:04:12.398Z,47.80
2022-10-09T19:06:51.900Z,75.40
2022-10-09T19:09:19.854Z,50.00
2022-10-09T19:11:49.895Z,37.50
2022-10-09T19:14:17.513Z,48.30
2022-10-09T19:16:48.387Z,69.40
2022-10-09T19:19:28.556Z,93.70
2022-10-09T19:22:04.478Z,139.10
2022-10-09T19:24:37.835Z,120.00
2022-10-09T19:27:05.396Z,92.50
2022-10-09T19:29:38.263Z,73.10
2022-10-09T19:32:08.148Z,52.00
2022-10-09T19:34:35.746Z,50.00
2022-10-09T19:39:38.891Z,48.40
2022-10-09T19:42:19.036Z,42.50
2022-10-09T19:44:47.141Z,47.90
2022-10-09T19:47:19.299Z,50.00
2022-10-09T19:49:46.936Z,53.00
2022-10-09T19:52:23.539Z,40.50
2022-10-09T19:54:53.578Z,56.40
2022-10-09T19:57:21.728Z,49.50
2022-10-09T19:59:49.402Z,65.40
2022-10-09T20:02:23.526Z,60.80
2022-10-09T20:04:57.026Z,44.30
2022-10-09T20:07:24.624Z,37.00
2022-10-09T20:09:52.180Z,35.50
2022-10-09T20:12:19.872Z,38.50
2022-10-09T20:14:47.534Z,34.70
2022-10-09T20:17:15.195Z,39.70
2022-10-09T20:19:45.693Z,39.60
2022-10-09T20:22:13.508Z,39.30
2022-10-09T20:24:41.080Z,38.30
2022-10-09T20:27:08.631Z,40.40
2022-10-09T20:29:36.268Z,36.10
2022-10-09T20:32:03.878Z,34.40
2022-10-09T20:34:31.471Z,30.40
2022-10-09T20:36:59.053Z,34.50
2022-10-09T20:39:26.613Z,31.90
2022-10-09T20:41:54.334Z,33.20
2022-10-09T20:44:21.878Z,31.60
2022-10-09T20:46:49.863Z,33.40
2022-10-09T20:49:17.524Z,40.70
2022-10-09T20:51:45.075Z,36.80
2022-10-09T20:54:16.222Z,37.10
2022-10-09T20:56:47.107Z,36.90
2022-10-09T20:59:15.112Z,25.90
2022-10-09T21:01:42.834Z,29.40
2022-10-09T21:04:11.761Z,33.00
2022-10-09T21:06:39.415Z,28.40
2022-10-09T21:09:07.162Z,25.20
2022-10-09T21:11:35.043Z,25.80
2022-10-09T21:14:03.149Z,29.20
2022-10-09T21:16:30.723Z,30.20
2022-10-09T21:18:59.656Z,23.90
2022-10-09T21:21:28.856Z,30.30
2022-10-09T21:23:57.451Z,28.20
2022-10-09T21:26:26.249Z,25.70
2022-10-09T21:28:59.010Z,20.80
2022-10-09T21:31:28.673Z,24.20
2022-10-09T21:33:57.682Z,22.10
2022-10-09T21:37:01.772Z,18.40
2022-10-09T21:39:30.362Z,18.60
2022-10-09T21:41:57.987Z,21.30
2022-10-09T21:44:25.878Z,22.60
2022-10-09T21:46:53.454Z,21.10
2022-10-09T21:49:22.608Z,23.30
2022-10-09T21:51:50.484Z,23.60
2022-10-09T21:54:18.034Z,21.00
2022-10-09T21:56:45.587Z,22.00
2022-10-09T21:59:13.527Z,21.60
2022-10-09T22:01:41.105Z,20.70
2022-10-09T22:04:08.830Z,23.00
2022-10-09T22:06:36.449Z,23.20
2022-10-09T22:09:04.040Z,20.40
2022-10-09T22:11:31.548Z,25.20
2022-10-09T22:13:59.895Z,23.30
2022-10-09T22:16:27.448Z,27.20
2022-10-09T22:18:55.012Z,23.30
2022-10-09T22:21:23.240Z,23.60
2022-10-09T22:23:50.824Z,29.00
2022-10-09T22:26:19.517Z,24.90
2022-10-09T22:28:47.693Z,24.40
2022-10-09T22:31:16.855Z,19.90
2022-10-09T22:33:44.740Z,23.90
2022-10-09T22:36:12.294Z,26.00
2022-10-09T22:38:40.313Z,26.90
2022-10-09T22:41:12.507Z,25.80
2022-10-09T22:43:40.756Z,23.30
2022-10-09T22:46:08.305Z,22.30
2022-10-09T22:48:36.292Z,27.60
2022-10-09T22:51:04.987Z,21.90
2022-10-09T22:53:33.075Z,20.10
2022-10-09T22:56:00.913Z,23.70
2022-10-09T22:58:28.533Z,25.30
2022-10-09T23:00:56.183Z,23.50
2022-10-09T23:03:23.752Z,26.50
2022-10-09T23:05:51.308Z,22.30
2022-10-09T23:08:18.898Z,25.70
2022-10-09T23:10:46.479Z,29.40
2022-10-09T23:13:14.035Z,26.00
2022-10-09T23:15:41.585Z,25.10
2022-10-09T23:18:09.160Z,29.90
2022-10-09T23:20:37.495Z,25.80
2022-10-09T23:23:05.302Z,26.50
2022-10-09T23:25:32.880Z,33.60
2022-10-09T23:28:00.473Z,25.20
2022-10-09T23:30:28.029Z,26.00
2022-10-09T23:32:55.609Z,26.30
2022-10-09T23:35:23.153Z,26.70
2022-10-09T23:37:52.794Z,29.40
2022-10-09T23:40:20.459Z,28.00
2022-10-09T23:42:48.277Z,24.30
2022-10-09T23:45:16.952Z,24.40
2022-10-09T23:47:44.548Z,25.30
2022-10-09T23:50:12.121Z,23.90
2022-10-09T23:52:39.697Z,24.00
2022-10-09T23:55:07.560Z,27.30
2022-10-09T23:57:37.036Z,27.00
